Time;durP1;ratioP1;P1;durP2;ratioP2;P2;SDS_P1;SDS_P2;PMS_P1;PMS_P2;Temp;Humidity;BMP_temperature;BMP_pressure;BME280_temperature;BME280_humidity;BME280_pressure;Samples;Min_cycle;Max_cycle;Signal;HPM_P1;HPM_P2
2022/01/09 00:01:04;;;;;;;4.90;3.13;;;;;;;0.70;70.61;94703.06;5050500;28;20531;-76
2022/01/09 00:03:31;;;;;;;6.00;3.30;;;;;;;0.72;70.71;94700.88;5051020;28;20052;-77
2022/01/09 00:05:57;;;;;;;6.97;3.42;;;;;;;0.75;70.98;94686.91;5050965;28;20064;-77
2022/01/09 00:08:24;;;;;;;6.32;3.10;;;;;;;0.78;71.31;94680.97;5050438;28;20053;-77
2022/01/09 00:10:51;;;;;;;6.22;3.17;;;;;;;0.77;70.96;94668.63;5048399;28;20048;-77
2022/01/09 00:13:18;;;;;;;8.10;3.55;;;;;;;0.80;70.73;94663.78;5050048;28;20049;-77
2022/01/09 00:15:46;;;;;;;6.68;3.30;;;;;;;0.80;70.31;94655.75;5051322;28;20041;-77
2022/01/09 00:18:13;;;;;;;5.50;3.30;;;;;;;0.77;70.40;94652.56;5050364;28;20064;-76
2022/01/09 00:20:39;;;;;;;6.00;3.13;;;;;;;0.80;70.55;94655.75;5050782;28;20049;-77
2022/01/09 00:23:06;;;;;;;6.53;3.20;;;;;;;0.80;70.49;94645.03;5050034;28;20072;-77
2022/01/09 00:25:33;;;;;;;6.18;3.70;;;;;;;0.77;70.60;94649.88;5050712;28;20045;-77
2022/01/09 00:27:59;;;;;;;5.40;3.33;;;;;;;0.75;70.80;94638.66;5050752;28;20132;-77
2022/01/09 00:30:26;;;;;;;8.88;3.70;;;;;;;0.75;70.42;94648.59;5049684;28;20048;-77
2022/01/09 00:32:54;;;;;;;7.00;3.67;;;;;;;0.76;70.79;94650.97;5050695;28;20049;-77
2022/01/09 00:35:21;;;;;;;9.52;3.75;;;;;;;0.76;70.83;94634.09;5049821;28;20056;-77
2022/01/09 00:37:48;;;;;;;5.57;3.58;;;;;;;0.77;70.95;94630.31;5050870;28;20052;-76
2022/01/09 00:40:15;;;;;;;6.68;3.75;;;;;;;0.76;70.92;94621.50;5049412;28;20056;-77
2022/01/09 00:42:42;;;;;;;6.65;3.60;;;;;;;0.78;71.05;94622.00;5048127;28;20037;-77
2022/01/09 00:45:10;;;;;;;5.75;3.58;;;;;;;0.80;71.01;94613.66;5049760;28;20415;-77
2022/01/09 00:47:37;;;;;;;7.72;3.40;;;;;;;0.80;70.76;94618.25;5050386;28;20053;-77
2022/01/09 00:50:06;;;;;;;7.75;3.42;;;;;;;0.75;71.05;94609.19;5048309;28;20052;-77
2022/01/09 00:52:33;;;;;;;7.13;3.80;;;;;;;0.75;71.14;94614.56;5049859;28;20052;-77
2022/01/09 00:54:59;;;;;;;5.40;3.22;;;;;;;0.75;71.20;94605.72;5050388;28;20053;-77
2022/01/09 00:57:26;;;;;;;6.65;3.75;;;;;;;0.78;71.27;94616.66;5049621;28;20052;-77
2022/01/09 00:59:52;;;;;;;7.53;3.33;;;;;;;0.84;71.30;94613.88;5050052;28;20044;-77
2022/01/09 01:02:19;;;;;;;6.47;3.30;;;;;;;0.85;70.78;94631.53;5049068;28;20061;-77
2022/01/09 01:04:48;;;;;;;7.75;3.65;;;;;;;0.85;70.83;94626.97;5050203;28;20075;-77
2022/01/09 01:07:16;;;;;;;6.07;3.38;;;;;;;0.87;71.01;94615.94;5049412;28;20464;-77
2022/01/09 01:09:42;;;;;;;7.15;3.47;;;;;;;0.83;70.34;94613.06;5049683;28;20080;-78
2022/01/09 01:12:09;;;;;;;7.13;3.33;;;;;;;0.81;71.08;94622.50;5046600;28;20053;-77
2022/01/09 01:14:35;;;;;;;6.75;3.67;;;;;;;0.83;71.13;94601.53;5050088;28;20045;-77
2022/01/09 01:17:02;;;;;;;4.88;3.10;;;;;;;0.87;70.33;94607.91;5049443;28;20515;-77
2022/01/09 01:19:28;;;;;;;6.30;3.53;;;;;;;0.88;70.90;94609.47;5049554;28;20044;-77
2022/01/09 01:21:56;;;;;;;6.00;3.75;;;;;;;0.82;71.60;94606.13;5048692;28;20053;-76
2022/01/09 01:24:24;;;;;;;5.80;3.08;;;;;;;0.85;72.38;94615.47;5049099;28;20401;-76
2022/01/09 01:26:50;;;;;;;6.63;3.40;;;;;;;0.83;70.77;94633.69;5049824;28;20060;-76
2022/01/09 01:29:18;;;;;;;6.32;3.28;;;;;;;0.83;71.30;94602.34;5048493;28;20515;-77
2022/01/09 01:31:44;;;;;;;5.78;3.17;;;;;;;0.90;71.56;94618.81;5049062;28;20515;-78
2022/01/09 01:34:12;;;;;;;5.32;3.35;;;;;;;0.93;70.54;94612.06;5049117;28;20052;-77
2022/01/09 01:36:39;;;;;;;7.03;3.10;;;;;;;0.93;71.28;94591.41;5049605;28;20049;-78
2022/01/09 01:39:05;;;;;;;5.38;3.22;;;;;;;0.96;71.66;94596.19;5048800;28;20499;-77
2022/01/09 01:41:33;;;;;;;4.65;2.80;;;;;;;1.07;71.01;94602.13;5046452;28;20049;-77
2022/01/09 01:44:00;;;;;;;7.15;3.33;;;;;;;1.09;71.09;94597.25;5049295;28;20056;-77
2022/01/09 01:46:26;;;;;;;5.70;2.95;;;;;;;1.07;71.37;94586.03;5048768;28;20053;-77
2022/01/09 01:48:53;;;;;;;5.55;3.28;;;;;;;1.08;71.35;94566.19;5049360;28;20408;-77
2022/01/09 01:51:20;;;;;;;7.95;3.38;;;;;;;1.14;71.51;94573.00;5048416;28;20045;-77
2022/01/09 01:53:47;;;;;;;4.95;3.10;;;;;;;1.23;71.49;94578.47;5049124;28;20069;-77
2022/01/09 01:56:19;;;;;;;5.93;3.25;;;;;;;1.26;70.75;94584.00;5048297;28;20080;-77
2022/01/09 01:58:47;;;;;;;4.57;2.95;;;;;;;1.23;70.47;94581.13;5048998;28;20056;-77
2022/01/09 02:01:14;;;;;;;4.80;2.95;;;;;;;1.22;70.74;94572.31;5048029;28;20056;-77
2022/01/09 02:03:40;;;;;;;6.32;3.53;;;;;;;1.26;71.05;94567.94;5048847;28;20053;-77
2022/01/09 02:06:07;;;;;;;5.95;3.20;;;;;;;1.22;70.91;94545.50;5048309;28;20526;-77
2022/01/09 02:08:35;;;;;;;7.57;3.50;;;;;;;1.21;70.91;94532.41;5049049;28;20056;-77
2022/01/09 02:11:01;;;;;;;6.47;3.75;;;;;;;1.18;71.14;94535.66;5046176;28;20049;-77
2022/01/09 02:13:28;;;;;;;6.43;3.60;;;;;;;1.12;71.38;94526.94;5028668;28;20049;-77
2022/01/09 02:15:59;;;;;;;6.25;3.97;;;;;;;1.09;71.75;94503.41;5029052;28;20046;-77
2022/01/09 02:18:26;;;;;;;5.63;3.33;;;;;;;1.06;72.11;94522.81;5028311;28;20073;-77
2022/01/09 02:20:54;;;;;;;7.80;3.72;;;;;;;1.03;72.95;94542.16;5028435;28;20056;-77
2022/01/09 02:23:20;;;;;;;7.15;3.50;;;;;;;1.00;73.33;94546.25;5028513;28;20412;-77
2022/01/09 02:25:48;;;;;;;5.88;3.58;;;;;;;0.96;73.37;94544.47;5028873;28;20401;-77
2022/01/09 02:28:17;;;;;;;6.45;3.75;;;;;;;0.95;73.92;94556.28;5027971;28;20063;-77
2022/01/09 02:30:45;;;;;;;8.15;4.18;;;;;;;0.94;73.88;94565.41;5028429;28;20044;-77
2022/01/09 02:33:15;;;;;;;7.88;4.10;;;;;;;0.93;73.45;94564.59;5028247;28;20053;-77
2022/01/09 02:35:42;;;;;;;6.90;3.78;;;;;;;0.88;74.07;94555.88;5028399;28;20041;-76
2022/01/09 02:38:10;;;;;;;5.93;3.00;;;;;;;0.88;74.21;94572.75;5027902;28;20579;-77
2022/01/09 02:40:36;;;;;;;6.30;2.75;;;;;;;0.86;74.67;94561.56;5027406;28;20692;-77
2022/01/09 02:43:03;;;;;;;4.68;2.78;;;;;;;0.84;74.71;94549.56;5008233;28;20053;-77
2022/01/09 02:45:30;;;;;;;4.30;2.45;;;;;;;0.85;75.33;94548.47;5008919;28;20073;-77
2022/01/09 02:47:59;;;;;;;4.30;2.60;;;;;;;0.82;75.99;94541.00;5008538;28;20521;-77
2022/01/09 02:50:33;;;;;;;4.05;2.40;;;;;;;0.82;76.46;94538.34;5007855;28;20049;-77
2022/01/09 02:53:02;;;;;;;3.72;2.15;;;;;;;0.83;76.87;94521.16;5008184;28;20046;-77
2022/01/09 02:55:30;;;;;;;4.20;1.73;;;;;;;0.84;77.05;94522.78;5008113;28;20044;-76
2022/01/09 02:57:59;;;;;;;3.22;1.63;;;;;;;0.84;77.24;94514.72;5008333;28;20054;-77
2022/01/09 03:00:27;;;;;;;3.13;1.80;;;;;;;0.84;77.77;94517.41;5027239;28;20760;-76
2022/01/09 03:02:54;;;;;;;2.97;1.45;;;;;;;0.81;77.97;94513.44;5027769;28;20049;-76
2022/01/09 03:05:20;;;;;;;3.05;1.92;;;;;;;0.83;78.43;94515.81;5027516;28;20045;-76
2022/01/09 03:07:47;;;;;;;4.90;1.45;;;;;;;0.81;78.53;94515.31;5028273;28;20065;-75
2022/01/09 03:10:16;;;;;;;2.75;1.50;;;;;;;0.80;79.19;94516.41;5027460;28;20057;-76
2022/01/09 03:12:45;;;;;;;4.75;1.73;;;;;;;0.78;79.66;94522.88;5042977;28;20048;-76
2022/01/09 03:15:12;;;;;;;2.72;1.60;;;;;;;0.80;79.89;94517.22;5047358;28;20126;-76
2022/01/09 03:17:39;;;;;;;3.25;1.50;;;;;;;0.81;80.51;94521.47;5047663;28;20523;-76
2022/01/09 03:20:11;;;;;;;2.33;1.60;;;;;;;0.77;80.84;94513.22;5047031;28;20052;-76
2022/01/09 03:22:38;;;;;;;2.65;1.70;;;;;;;0.77;81.17;94497.16;5047437;28;20044;-76
2022/01/09 03:25:06;;;;;;;2.72;1.70;;;;;;;0.76;81.53;94506.28;5047450;28;20049;-76
2022/01/09 03:27:32;;;;;;;4.15;1.63;;;;;;;0.78;82.37;94498.75;5047695;28;20052;-77
2022/01/09 03:30:01;;;;;;;6.72;1.73;;;;;;;0.76;82.77;94500.16;5047029;28;20060;-76
2022/01/09 03:32:27;;;;;;;3.03;1.98;;;;;;;0.70;83.12;94502.16;5046878;28;20772;-76
2022/01/09 03:34:54;;;;;;;3.05;1.63;;;;;;;0.69;83.64;94489.84;5047652;28;20045;-76
2022/01/09 03:37:20;;;;;;;2.58;1.60;;;;;;;0.68;84.32;94493.63;5047158;28;20080;-75
2022/01/09 03:39:47;;;;;;;4.53;1.88;;;;;;;0.66;84.73;94485.09;5046059;28;20052;-75
2022/01/09 03:42:13;;;;;;;4.07;1.98;;;;;;;0.67;85.11;94472.47;5026608;28;20041;-75
2022/01/09 03:44:39;;;;;;;3.53;1.75;;;;;;;0.65;85.83;94459.38;5027372;28;20050;-76
2022/01/09 03:47:07;;;;;;;3.17;2.00;;;;;;;0.63;86.13;94445.53;5027108;28;20041;-76
2022/01/09 03:49:34;;;;;;;4.45;1.70;;;;;;;0.69;86.61;94447.00;5027269;28;20065;-75
2022/01/09 03:52:01;;;;;;;4.10;1.83;;;;;;;0.68;86.22;94440.06;5027224;28;20726;-76
2022/01/09 03:54:27;;;;;;;3.63;1.90;;;;;;;0.70;86.43;94440.53;5027194;28;20125;-76
2022/01/09 03:56:54;;;;;;;3.70;1.88;;;;;;;0.71;86.43;94444.00;5027565;28;20065;-76
2022/01/09 03:59:21;;;;;;;6.07;2.38;;;;;;;0.75;86.59;94439.63;5026747;28;20057;-76
2022/01/09 04:01:47;;;;;;;4.03;1.92;;;;;;;0.76;86.55;94446.56;5026735;28;20420;-76
2022/01/09 04:04:15;;;;;;;3.08;1.80;;;;;;;0.75;86.54;94431.59;5026955;28;20057;-76
2022/01/09 04:06:46;;;;;;;2.85;1.80;;;;;;;0.75;86.75;94416.31;5027289;28;20037;-76
2022/01/09 04:09:19;;;;;;;3.10;1.83;;;;;;;0.75;86.75;94424.34;5027123;28;20053;-76
2022/01/09 04:11:46;;;;;;;3.10;2.00;;;;;;;0.77;87.09;94427.50;5029498;28;20045;-75
2022/01/09 04:14:13;;;;;;;2.78;1.63;;;;;;;0.82;87.04;94423.13;5042270;28;20059;-76
2022/01/09 04:16:39;;;;;;;4.75;2.10;;;;;;;0.83;86.99;94422.03;5047394;28;20442;-76
2022/01/09 04:19:10;;;;;;;5.38;2.20;;;;;;;0.84;87.02;94427.09;5046940;28;20053;-76
2022/01/09 04:21:37;;;;;;;3.05;1.83;;;;;;;0.89;87.23;94423.47;5047067;28;20122;-75
2022/01/09 04:24:05;;;;;;;3.05;2.05;;;;;;;0.91;87.26;94426.66;5047607;28;20048;-76
2022/01/09 04:26:31;;;;;;;2.72;1.80;;;;;;;0.93;87.32;94430.63;5050974;28;20049;-76
2022/01/09 04:28:58;;;;;;;2.97;1.73;;;;;;;0.95;87.25;94424.97;5050828;28;20601;-76
2022/01/09 04:31:24;;;;;;;4.90;2.20;;;;;;;0.94;87.17;94426.03;5050553;28;20705;-76
2022/01/09 04:33:51;;;;;;;2.58;1.60;;;;;;;0.97;87.27;94446.88;5050790;28;20057;-78
2022/01/09 04:36:17;;;;;;;3.22;1.77;;;;;;;0.99;87.11;94433.97;5050416;28;20071;-76
2022/01/09 04:38:45;;;;;;;3.55;1.73;;;;;;;0.99;87.05;94434.78;5050366;28;20055;-76
2022/01/09 04:41:11;;;;;;;3.47;1.77;;;;;;;0.99;87.26;94433.97;5040352;28;20049;-76
2022/01/09 04:43:38;;;;;;;2.25;1.58;;;;;;;1.00;87.29;94435.56;5030644;28;20416;-76
2022/01/09 04:46:04;;;;;;;1.80;1.15;;;;;;;1.07;87.32;94435.16;5030156;28;20054;-76
2022/01/09 04:48:31;;;;;;;1.85;1.15;;;;;;;1.14;87.56;94430.91;5030741;28;20046;-76
2022/01/09 04:50:58;;;;;;;1.30;0.80;;;;;;;1.32;87.45;94431.06;5030204;28;20053;-76
2022/01/09 04:53:25;;;;;;;1.55;0.60;;;;;;;1.49;86.65;94436.50;5030083;28;20554;-76
2022/01/09 04:55:52;;;;;;;1.35;0.65;;;;;;;1.58;86.11;94440.03;5030643;28;20049;-76
2022/01/09 04:58:19;;;;;;;1.77;0.70;;;;;;;1.68;85.83;94439.00;5029809;28;20041;-76
2022/01/09 05:00:46;;;;;;;1.88;0.75;;;;;;;1.73;85.40;94441.53;5029971;28;20052;-76
2022/01/09 05:03:13;;;;;;;0.77;0.40;;;;;;;1.79;83.97;94451.03;5029878;28;20057;-76
2022/01/09 05:05:40;;;;;;;1.75;0.60;;;;;;;1.82;84.11;94451.19;5029906;28;20060;-76
2022/01/09 05:08:06;;;;;;;0.85;0.57;;;;;;;1.81;84.35;94448.81;5029741;28;20049;-77
2022/01/09 05:10:33;;;;;;;3.20;0.90;;;;;;;1.80;84.00;94449.94;5032423;28;20049;-77
2022/01/09 05:13:01;;;;;;;1.05;0.70;;;;;;;1.77;83.46;94443.28;5029953;28;20057;-76
2022/01/09 05:15:27;;;;;;;1.48;0.77;;;;;;;1.83;82.72;94457.38;5030183;28;20049;-77
2022/01/09 05:17:58;;;;;;;1.75;1.00;;;;;;;1.91;82.53;94458.50;5029968;28;20057;-77
2022/01/09 05:20:25;;;;;;;1.30;0.70;;;;;;;1.97;82.38;94459.94;5029572;28;20412;-76
2022/01/09 05:22:51;;;;;;;1.80;0.82;;;;;;;2.04;81.97;94468.38;5029866;28;20141;-76
2022/01/09 05:25:18;;;;;;;1.85;0.85;;;;;;;2.08;81.21;94467.41;5029475;28;20730;-74
2022/01/09 05:27:44;;;;;;;1.23;0.70;;;;;;;2.13;80.89;94466.47;5029822;28;20041;-76
2022/01/09 05:30:12;;;;;;;2.10;0.90;;;;;;;2.15;80.89;94472.34;5029248;28;20057;-77
2022/01/09 05:32:39;;;;;;;1.38;0.77;;;;;;;2.18;80.79;94474.41;5029696;28;20415;-77
2022/01/09 05:35:06;;;;;;;1.17;0.80;;;;;;;2.20;81.00;94466.06;5029136;28;20076;-77
2022/01/09 05:37:32;;;;;;;1.30;0.80;;;;;;;2.20;80.49;94466.84;5029296;28;20056;-76
2022/01/09 05:39:59;;;;;;;1.25;0.80;;;;;;;2.19;80.57;94465.22;5031467;28;20049;-76
2022/01/09 05:42:25;;;;;;;0.90;0.60;;;;;;;2.19;80.20;94459.88;5029978;28;20523;-76
2022/01/09 05:44:53;;;;;;;0.60;0.52;;;;;;;2.23;79.77;94457.34;5029722;28;20056;-77
2022/01/09 05:47:21;;;;;;;0.47;0.40;;;;;;;2.32;78.67;94458.97;5028837;28;20541;-77
2022/01/09 05:49:47;;;;;;;0.77;0.40;;;;;;;2.49;78.14;94452.84;5039059;28;20041;-77
2022/01/09 05:52:14;;;;;;;0.30;0.30;;;;;;;2.56;77.97;94444.34;5048783;28;20068;-76
2022/01/09 05:54:40;;;;;;;0.63;0.30;;;;;;;2.65;77.71;94453.19;5049421;28;20057;-76
2022/01/09 05:57:07;;;;;;;0.80;0.30;;;;;;;2.73;78.02;94444.34;5048592;28;20059;-76
2022/01/09 05:59:34;;;;;;;0.70;0.38;;;;;;;2.78;77.74;94436.13;5049149;28;20059;-77
2022/01/09 06:02:00;;;;;;;1.15;0.30;;;;;;;2.82;77.78;94447.84;5048788;28;20492;-77
2022/01/09 06:04:28;;;;;;;1.38;0.40;;;;;;;2.86;78.22;94451.47;5048940;28;20642;-76
2022/01/09 06:06:55;;;;;;;0.43;0.38;;;;;;;2.92;78.32;94444.03;5049127;28;20049;-76
2022/01/09 06:09:22;;;;;;;0.47;0.20;;;;;;;3.00;78.33;94450.53;5048665;28;20114;-77
2022/01/09 06:11:48;;;;;;;2.20;0.40;;;;;;;3.10;78.37;94451.00;5048564;28;20048;-77
2022/01/09 06:14:15;;;;;;;0.60;0.30;;;;;;;3.20;78.49;94454.50;5048562;28;20492;-76
2022/01/09 06:16:41;;;;;;;0.35;0.30;;;;;;;3.26;78.04;94448.63;5048924;28;20045;-77
2022/01/09 06:19:10;;;;;;;0.65;0.30;;;;;;;3.31;77.95;94458.44;5048215;28;20053;-76
2022/01/09 06:21:38;;;;;;;0.30;0.25;;;;;;;3.34;78.25;94460.47;5048537;28;20079;-76
2022/01/09 06:24:05;;;;;;;0.30;0.20;;;;;;;3.39;77.33;94442.31;5048342;28;20057;-77
2022/01/09 06:26:31;;;;;;;0.57;0.30;;;;;;;3.46;77.41;94457.16;5048737;28;20053;-76
2022/01/09 06:28:58;;;;;;;0.20;0.20;;;;;;;3.49;76.51;94461.88;5048622;28;20061;-77
2022/01/09 06:31:24;;;;;;;0.38;0.20;;;;;;;3.51;76.35;94470.44;5047737;28;20060;-77
2022/01/09 06:33:50;;;;;;;0.32;0.10;;;;;;;3.54;76.27;94470.59;5048678;28;20060;-76
2022/01/09 06:36:17;;;;;;;1.10;0.28;;;;;;;3.58;75.78;94476.13;5047945;28;20530;-76
2022/01/09 06:38:45;;;;;;;0.73;0.20;;;;;;;3.61;75.67;94475.50;5048355;28;20499;-77
2022/01/09 06:41:11;;;;;;;0.20;0.20;;;;;;;3.60;75.59;94474.72;5038484;28;20049;-76
2022/01/09 06:43:38;;;;;;;0.25;0.10;;;;;;;3.62;75.50;94482.47;5028462;28;20053;-77
2022/01/09 06:46:04;;;;;;;0.40;0.20;;;;;;;3.62;75.48;94482.47;5027968;28;20057;-77
2022/01/09 06:48:31;;;;;;;0.10;0.10;;;;;;;3.62;75.28;94483.25;5028563;28;20056;-76
2022/01/09 06:50:57;;;;;;;0.20;0.20;;;;;;;3.61;75.70;94481.69;5027405;28;20049;-76
2022/01/09 06:53:23;;;;;;;0.30;0.20;;;;;;;3.59;76.07;94501.94;5027907;28;20049;-77
2022/01/09 06:55:51;;;;;;;0.20;0.20;;;;;;;3.57;76.10;94490.69;5028080;28;20416;-77
2022/01/09 06:58:18;;;;;;;0.10;0.10;;;;;;;3.52;76.50;94505.09;5027672;28;20057;-76
2022/01/09 07:00:45;;;;;;;0.20;0.20;;;;;;;3.52;76.85;94507.00;5027734;28;20456;-77
2022/01/09 07:03:12;;;;;;;0.95;0.20;;;;;;;3.43;77.09;94507.00;5027476;28;20083;-77
2022/01/09 07:05:38;;;;;;;0.55;0.20;;;;;;;3.42;77.21;94508.13;5028214;28;20049;-77
2022/01/09 07:08:05;;;;;;;3.40;0.20;;;;;;;3.33;77.75;94502.72;5027598;28;20056;-77
2022/01/09 07:10:32;;;;;;;0.10;0.10;;;;;;;3.30;78.44;94524.91;5030538;28;20060;-76
2022/01/09 07:12:59;;;;;;;0.60;0.28;;;;;;;3.27;78.72;94530.13;5027992;28;20049;-77
2022/01/09 07:15:26;;;;;;;0.10;0.10;;;;;;;3.24;79.15;94530.75;5027591;28;20045;-76
2022/01/09 07:17:52;;;;;;;0.65;0.15;;;;;;;3.23;78.91;94548.78;5027595;28;20052;-77
2022/01/09 07:20:19;;;;;;;0.00;0.00;;;;;;;3.19;79.20;94534.41;5027352;28;20045;-76
2022/01/09 07:22:45;;;;;;;0.10;0.10;;;;;;;3.15;79.44;94554.97;5027769;28;20057;-73
2022/01/09 07:25:12;;;;;;;0.50;0.50;;;;;;;3.06;80.04;94560.31;5027628;28;20553;-73
2022/01/09 07:27:38;;;;;;;0.20;0.10;;;;;;;2.99;81.01;94561.88;5027635;28;20041;-73
2022/01/09 07:30:08;;;;;;;0.20;0.20;;;;;;;2.88;82.26;94567.56;5027022;28;20061;-72
2022/01/09 07:32:36;;;;;;;0.10;0.10;;;;;;;2.75;82.84;94581.91;5028000;28;20060;-72
2022/01/09 07:35:03;;;;;;;0.40;0.10;;;;;;;2.63;83.94;94597.03;5027586;28;20073;-73
2022/01/09 07:37:30;;;;;;;1.98;0.20;;;;;;;2.51;84.47;94578.81;5027987;28;20045;-72
2022/01/09 07:39:57;;;;;;;0.20;0.10;;;;;;;2.43;84.66;94606.44;5028911;28;20408;-72
2022/01/09 07:42:24;;;;;;;0.10;0.10;;;;;;;2.35;84.84;94619.53;5027998;28;20056;-72
2022/01/09 07:44:50;;;;;;;0.10;0.10;;;;;;;2.30;84.58;94622.34;5027900;28;20531;-73
2022/01/09 07:47:18;;;;;;;0.52;0.47;;;;;;;2.32;84.45;94630.06;5026933;28;20057;-72
2022/01/09 07:49:44;;;;;;;0.20;0.10;;;;;;;2.35;84.71;94637.53;5027601;28;20504;-73
2022/01/09 07:52:11;;;;;;;0.03;0.03;;;;;;;2.35;84.18;94665.19;5026811;28;20060;-73
2022/01/09 07:54:37;;;;;;;0.20;0.20;;;;;;;2.34;84.37;94650.16;5027643;28;20049;-73
2022/01/09 07:57:04;;;;;;;0.20;0.20;;;;;;;2.31;84.80;94661.53;5027321;28;20052;-72
2022/01/09 07:59:31;;;;;;;0.10;0.10;;;;;;;2.27;85.72;94671.28;5029261;28;20435;-72
2022/01/09 08:01:57;;;;;;;0.10;0.10;;;;;;;2.17;86.19;94671.53;5031358;28;20053;-72
2022/01/09 08:04:25;;;;;;;1.65;0.17;;;;;;;2.02;87.24;94682.63;5031045;28;20057;-73
2022/01/09 08:06:52;;;;;;;0.08;0.08;;;;;;;1.89;88.11;94692.34;5031583;28;20057;-72
2022/01/09 08:09:18;;;;;;;0.10;0.10;;;;;;;1.77;89.20;94692.84;5030868;28;20049;-72
2022/01/09 08:11:45;;;;;;;0.20;0.10;;;;;;;1.68;89.96;94697.38;5033980;28;20523;-73
2022/01/09 08:14:11;;;;;;;0.28;0.10;;;;;;;1.63;90.31;94708.22;5030667;28;20053;-72
2022/01/09 08:16:40;;;;;;;0.10;0.10;;;;;;;1.56;90.81;94721.22;5031417;28;20056;-73
2022/01/09 08:19:07;;;;;;;0.20;0.20;;;;;;;1.40;91.22;94719.94;5030862;28;20056;-72
2022/01/09 08:21:34;;;;;;;0.20;0.20;;;;;;;1.36;91.71;94727.81;5031113;28;20048;-72
2022/01/09 08:24:01;;;;;;;0.10;0.10;;;;;;;1.34;92.40;94729.19;5031129;28;20107;-72
2022/01/09 08:26:27;;;;;;;1.33;0.20;;;;;;;1.32;92.66;94737.53;5030710;28;20576;-72
2022/01/09 08:28:54;;;;;;;0.75;0.20;;;;;;;1.36;92.99;94745.78;5030198;28;20052;-73
2022/01/09 08:31:22;;;;;;;0.40;0.22;;;;;;;1.33;93.08;94752.53;5030157;28;20095;-72
2022/01/09 08:33:49;;;;;;;0.68;0.10;;;;;;;1.32;93.33;94750.16;5031028;28;20068;-72
2022/01/09 08:36:16;;;;;;;0.25;0.13;;;;;;;1.31;93.37;94752.06;5030606;28;20057;-72
2022/01/09 08:38:44;;;;;;;0.35;0.20;;;;;;;1.34;93.59;94772.09;5030939;28;20052;-72
2022/01/09 08:41:10;;;;;;;0.20;0.20;;;;;;;1.38;93.68;94767.75;5038218;28;20064;-72
2022/01/09 08:43:37;;;;;;;0.30;0.13;;;;;;;1.38;93.72;94773.09;5050605;28;20534;-72
2022/01/09 08:46:04;;;;;;;0.38;0.20;;;;;;;1.37;93.69;94761.59;5050238;28;20087;-72
2022/01/09 08:48:31;;;;;;;1.58;0.40;;;;;;;1.34;93.85;94774.78;5050190;28;20056;-72
2022/01/09 08:50:57;;;;;;;0.45;0.20;;;;;;;1.33;93.64;94794.66;5049362;28;20458;-73
2022/01/09 08:53:24;;;;;;;0.20;0.20;;;;;;;1.30;93.83;94788.81;5049749;28;20049;-72
2022/01/09 08:55:52;;;;;;;0.57;0.30;;;;;;;1.33;93.93;94791.97;5050401;28;20045;-72
2022/01/09 08:58:18;;;;;;;1.85;0.38;;;;;;;1.29;93.92;94789.88;5049810;28;20495;-72
2022/01/09 09:00:45;;;;;;;0.20;0.20;;;;;;;1.28;93.93;94796.34;5050221;28;20045;-72
2022/01/09 09:03:11;;;;;;;0.40;0.30;;;;;;;1.28;93.86;94801.69;5049561;28;20055;-72
2022/01/09 09:05:38;;;;;;;0.77;0.30;;;;;;;1.32;94.00;94801.13;5050632;28;20526;-73
2022/01/09 09:08:05;;;;;;;0.50;0.20;;;;;;;1.36;93.84;94810.13;5049600;28;20060;-71
2022/01/09 09:10:32;;;;;;;0.52;0.35;;;;;;;1.41;93.96;94815.41;5045132;28;20452;-72
2022/01/09 09:13:00;;;;;;;0.88;0.30;;;;;;;1.46;93.57;94821.50;5030595;28;20049;-73
2022/01/09 09:15:26;;;;;;;1.08;0.40;;;;;;;1.55;93.35;94821.56;5029623;28;20056;-72
2022/01/09 09:17:53;;;;;;;1.35;0.35;;;;;;;1.58;93.09;94839.78;5030113;28;20474;-73
2022/01/09 09:20:20;;;;;;;0.65;0.30;;;;;;;1.64;92.57;94835.91;5028887;28;20507;-73
2022/01/09 09:22:46;;;;;;;0.40;0.25;;;;;;;1.67;92.66;94835.31;5030168;28;20053;-73
2022/01/09 09:25:13;;;;;;;0.40;0.30;;;;;;;1.69;92.18;94837.69;5029400;28;20057;-72
2022/01/09 09:27:40;;;;;;;0.45;0.30;;;;;;;1.76;91.86;94836.19;5030119;28;20045;-73
2022/01/09 09:30:10;;;;;;;0.57;0.40;;;;;;;1.79;91.19;94851.69;5029218;28;20060;-73
2022/01/09 09:32:37;;;;;;;1.27;0.38;;;;;;;1.85;91.18;94847.00;5029815;28;20045;-72
2022/01/09 09:35:04;;;;;;;0.25;0.20;;;;;;;1.89;90.02;94855.28;5029367;28;20060;-72
2022/01/09 09:37:31;;;;;;;1.35;0.47;;;;;;;1.95;89.98;94862.13;5029667;28;20065;-72
2022/01/09 09:39:58;;;;;;;0.20;0.20;;;;;;;2.07;89.43;94865.88;5031092;28;20053;-73
2022/01/09 09:42:24;;;;;;;0.40;0.28;;;;;;;2.15;88.94;94872.44;5029707;28;20052;-73
2022/01/09 09:44:51;;;;;;;0.95;0.47;;;;;;;2.22;88.08;94870.16;5042276;28;20055;-72
2022/01/09 09:47:20;;;;;;;2.67;0.40;;;;;;;2.31;87.71;94881.78;5048864;28;20049;-72
2022/01/09 09:49:47;;;;;;;1.13;0.38;;;;;;;2.40;86.70;94875.66;5049517;28;20503;-72
2022/01/09 09:52:17;;;;;;;0.30;0.20;;;;;;;2.44;86.10;94884.72;5048963;28;20045;-73
2022/01/09 09:54:44;;;;;;;0.22;0.20;;;;;;;2.51;86.64;94887.81;5049068;28;20139;-72
2022/01/09 09:57:10;;;;;;;0.70;0.30;;;;;;;2.55;85.55;94894.16;5049047;28;20053;-73
2022/01/09 09:59:38;;;;;;;1.83;0.47;;;;;;;2.57;85.28;94891.97;5048569;28;20407;-73
2022/01/09 10:02:09;;;;;;;0.35;0.35;;;;;;;2.57;84.58;94894.66;5048618;28;20136;-73
2022/01/09 10:04:38;;;;;;;0.65;0.25;;;;;;;2.60;84.88;94899.41;5049098;28;20110;-72
2022/01/09 10:07:04;;;;;;;0.82;0.50;;;;;;;2.63;84.38;94903.41;5048370;28;20051;-73
2022/01/09 10:09:31;;;;;;;0.47;0.40;;;;;;;2.57;83.74;94900.03;5048817;28;20064;-73
2022/01/09 10:12:00;;;;;;;0.32;0.20;;;;;;;2.53;83.85;94899.03;5046855;28;20041;-73
2022/01/09 10:14:29;;;;;;;1.02;0.40;;;;;;;2.50;83.95;94905.00;5048247;28;20052;-73
2022/01/09 10:17:07;;;;;;;0.98;0.35;;;;;;;2.49;83.72;94908.78;5048952;28;20060;-73
2022/01/09 10:19:53;;;;;;;2.75;0.40;;;;;;;2.47;83.65;94914.47;5048689;28;20052;-73
2022/01/09 10:22:37;;;;;;;0.77;0.30;;;;;;;2.46;83.77;94925.53;5048313;28;20064;-73
2022/01/09 10:25:20;;;;;;;0.45;0.32;;;;;;;2.49;84.10;94924.91;5048413;28;20419;-73
2022/01/09 10:27:47;;;;;;;0.83;0.40;;;;;;;2.50;83.80;94927.28;5048961;28;20397;-73
2022/01/09 10:30:14;;;;;;;1.23;0.80;;;;;;;2.55;83.67;94929.88;5048106;28;20056;-72
2022/01/09 10:32:40;;;;;;;0.77;0.30;;;;;;;2.59;83.39;94936.25;5048774;28;20051;-73
2022/01/09 10:35:12;;;;;;;2.88;0.50;;;;;;;2.60;83.44;94932.44;5048102;28;20098;-73
2022/01/09 10:37:41;;;;;;;3.00;0.50;;;;;;;2.66;82.59;94925.06;5048897;28;20197;-72
2022/01/09 10:40:10;;;;;;;1.02;0.40;;;;;;;2.65;81.90;94947.66;5047109;28;20060;-73
2022/01/09 10:42:40;;;;;;;3.05;0.70;;;;;;;2.65;81.82;94939.59;5028816;28;20416;-73
2022/01/09 10:45:18;;;;;;;1.33;0.50;;;;;;;2.70;82.10;94942.19;5028395;28;20057;-72
2022/01/09 10:47:45;;;;;;;3.30;0.77;;;;;;;2.70;81.91;94936.81;5028397;28;20527;-73
2022/01/09 10:50:23;;;;;;;2.20;0.60;;;;;;;2.76;81.91;94945.56;5027890;28;20048;-73
2022/01/09 10:52:50;;;;;;;0.80;0.50;;;;;;;2.79;81.45;94940.38;5028397;28;20049;-73
2022/01/09 10:55:16;;;;;;;0.68;0.43;;;;;;;2.85;81.12;94944.53;5027760;28;20061;-73
2022/01/09 10:57:45;;;;;;;0.95;0.40;;;;;;;2.86;81.28;94946.13;5028297;28;20052;-72
2022/01/09 11:00:14;;;;;;;1.83;0.60;;;;;;;2.93;81.12;94942.25;5027742;28;20049;-73
2022/01/09 11:02:41;;;;;;;0.88;0.50;;;;;;;2.96;81.25;94949.69;5028138;28;20081;-72
2022/01/09 11:05:08;;;;;;;1.02;0.50;;;;;;;2.94;81.73;94957.28;5027811;28;20062;-73
2022/01/09 11:07:36;;;;;;;2.33;0.57;;;;;;;2.90;81.74;94961.66;5028291;28;20053;-73
2022/01/09 11:10:06;;;;;;;1.23;0.50;;;;;;;2.86;81.98;94959.56;5029695;28;20060;-73
2022/01/09 11:12:42;;;;;;;3.40;0.47;;;;;;;2.92;82.21;94954.88;5028132;28;20131;-72
2022/01/09 11:15:12;;;;;;;1.65;0.40;;;;;;;2.93;81.67;94961.06;5027714;28;20107;-73
2022/01/09 11:17:40;;;;;;;2.97;0.60;;;;;;;2.93;81.68;94955.69;5028077;28;20049;-73
2022/01/09 11:20:08;;;;;;;0.50;0.30;;;;;;;2.90;81.20;94961.66;5027304;28;20057;-73
2022/01/09 11:22:36;;;;;;;1.33;0.50;;;;;;;2.92;81.22;94967.53;5027901;28;20052;-73
2022/01/09 11:25:14;;;;;;;1.90;0.40;;;;;;;2.97;80.96;94967.41;5027419;28;20056;-73
2022/01/09 11:28:00;;;;;;;1.90;0.60;;;;;;;2.95;80.55;94964.25;5027965;28;20057;-73
2022/01/09 11:30:56;;;;;;;2.33;0.68;;;;;;;2.95;81.03;94959.66;5027398;28;20056;-73
2022/01/09 11:33:51;;;;;;;3.47;0.50;;;;;;;3.01;80.41;94963.03;5026690;28;20068;-74
2022/01/09 11:36:24;;;;;;;1.25;0.60;;;;;;;3.00;80.74;94972.19;5027423;28;20046;-73
2022/01/09 11:39:02;;;;;;;1.33;0.50;;;;;;;2.98;79.23;94979.78;5028087;28;20057;-72
2022/01/09 11:41:32;;;;;;;2.38;0.70;;;;;;;2.98;80.17;94985.16;5029674;28;20047;-72
2022/01/09 11:44:01;;;;;;;2.60;0.50;;;;;;;2.99;79.17;94981.38;5027864;28;20081;-73